METAR Data
IDs: Format: Raw Decoded Include TAF

Data at: 1932 UTC 14 Dec 2018

KBKD 141915Z AUTO 34017G25KT 10SM BKN023 BKN041 OVC070 08/00 A3013 RMK AO2 T00830000
KBKD 141735Z AUTO 33016G28KT 10SM OVC021 A3016 RMK AO2
KBKD 131815Z AUTO 34013G22KT 5SM HZ OVC011 A2976 RMK AO2 LTG DSNT NE
KBKD 131630Z AUTO 34015G23KT 7SM OVC009 10/07 A2975 RMK AO2 T00970073
KBKD 131615Z AUTO 32009KT 10SM OVC009 10/07 A2974 RMK AO2 T00980073
KBKD 131555Z AUTO 33012G17KT 10SM OVC009 10/07 A2974 RMK AO2 T00950066
KBKD 131530Z AUTO 33012G23KT 10SM BKN009 10/06 A2972 RMK AO2 T00970061
KBKD 131515Z AUTO 32014G20KT 10SM CLR 10/06 A2971 RMK AO2 LTG DSNT NE T01000057
KBKD 131455Z AUTO 32016G24KT 10SM CLR 10/06 A2970 RMK AO2 T01040055
KBKD 131435Z AUTO 30013G17KT 10SM CLR 11/08 A2968 RMK AO2 T01130076
KBKD 131415Z AUTO 26007KT 7SM CLR 11/08 A2967 RMK AO2 T01100081
KBKD 131355Z AUTO 26007KT 10SM CLR 11/08 A2966 RMK AO2 T01070084
KBKD 131335Z AUTO 24006KT 7SM CLR 11/08 A2966 RMK AO2 T01050082
KBKD 131315Z AUTO 23004KT 10SM CLR 11/08 A2965 RMK AO2 T01080081
KBKD 131255Z AUTO 23006KT 10SM CLR 11/08 A2965 RMK AO2 T01110083
KBKD 131235Z AUTO 23004KT 10SM CLR 11/09 A2965 RMK AO2 T01070087
KBKD 131215Z AUTO 21005KT 10SM SCT095 11/09 A2964 RMK AO2 T01110086
KBKD 131155Z AUTO 23003KT 10SM BKN095 11/10 A2964 RMK AO2 T01120095 10141 20110
KBKD 131135Z AUTO 21005KT 10SM SCT095 11/09 A2964 RMK AO2 T01100091
KBKD 131115Z AUTO 21007KT 10SM SCT120 12/09 A2963 RMK AO2 T01150087
KBKD 131055Z AUTO 20007KT 10SM SCT120 12/09 A2963 RMK AO2 LTG DSNT NE T01200090
KBKD 131035Z AUTO 20009KT 10SM SCT120 12/09 A2964 RMK AO2 LTG DSNT NE T01210090
KBKD 131015Z AUTO 20009KT 10SM SCT120 12/09 A2964 RMK AO2 LTG DSNT E T01220091
KBKD 130955Z AUTO 19010G14KT 10SM SCT110 12/09 A2965 RMK AO2 LTG DSNT NE AND E T01230092
KBKD 130935Z AUTO 19009KT 10SM BKN100 13/09 A2966 RMK AO2 T01250093
KBKD 130915Z AUTO 19008KT 10SM SCT110 13/09 A2967 RMK AO2 LTG DSNT NE AND E T01250094
KBKD 130855Z AUTO 20010KT 10SM VCTS CLR 13/10 A2968 RMK AO2 LTG DSNT NE AND E T01250095
KBKD 130835Z AUTO 19010KT 10SM CLR 13/10 A2968 RMK AO2 T01270097
KBKD 130815Z AUTO 19010KT 10SM VCTS CLR 13/10 A2969 RMK AO2 LTG DSNT NE T01300098
KBKD 130755Z AUTO 19012KT 10SM VCTS SCT100 13/10 A2969 RMK AO2 LTG DSNT N AND NE T01330100
KBKD 130735Z AUTO 19012KT 10SM BKN100 14/10 A2970 RMK AO2 LTG DSNT N T01350104